»·PEaware :: N59TJ O22-KHWD

N59TJ :: O22-KHWD

FLIGHT INFORMATION

Flight Status: Arrived
Operator: Privately registered:
United States
More flights under this callsign
Pilot: Zane G. (31)
Aircraft: BEECH AIRCRAFT A90-E90 KING AIR
(BE9L)
More flights by this aircraft type
Origin: O22 Columbia
United States
Destination: KHWD Hayward Executive
United States
More flights between these airports :: More routes between these airports
Route: +SUNOL
File this flight plan on PilotEdge
Remarks: / V /
Altitude:
(Current/Filed)
12,000ft
Speed:
(Current/Filed)
220kts
Departed: 28-Apr-12 09:48 AM
Arrived: 28-Apr-12 10:28 AM
Distance/Time
Traveled:
84nm/0:40
Distance/Time
To Go:
Arrived

Flight Plot

Page will automatically refresh every two minutes.

Flight plan parsing failed; only flown route is shown


Map Options




Map Legend


Flown Route
Filed Route
Departure Airport
Arrival Airport
Navaid (VOR, NDB)
Fix

Horizontal Profiles

Position Reports

Time Latitude Longitude Heading Altitude Ground
Speed
28-Apr-12 09:33 38.028372 -120.415256 129 2123ft 0kts
28-Apr-12 09:35 38.028371 -120.415256 129 2123ft 0kts
28-Apr-12 09:37 38.028371 -120.415255 129 2123ft 0kts
28-Apr-12 09:38 38.028371 -120.415255 129 2123ft 0kts
28-Apr-12 09:39 38.028371 -120.415255 129 2123ft 0kts
28-Apr-12 09:40 38.028370 -120.415253 129 2123ft 0kts
28-Apr-12 09:41 38.028370 -120.415253 129 2123ft 0kts
28-Apr-12 09:42 38.028370 -120.415253 129 2123ft 0kts
28-Apr-12 09:43 38.028370 -120.415253 129 2123ft 0kts
28-Apr-12 09:44 38.028370 -120.415253 129 2123ft 0kts
28-Apr-12 09:45 38.025827 -120.414629 98 2123ft 0kts
28-Apr-12 09:46 38.025827 -120.414626 98 2123ft 0kts
28-Apr-12 09:47 38.028253 -120.413550 9 2123ft 67kts
28-Apr-12 09:48 38.048076 -120.429290 255 3504ft 113kts
28-Apr-12 09:49 38.037097 -120.474896 254 4643ft 150kts
28-Apr-12 09:50 38.024992 -120.519840 254 5728ft 155kts
28-Apr-12 09:51 38.009876 -120.570554 250 6998ft 150kts
28-Apr-12 09:52 37.994589 -120.618852 250 8283ft 144kts
28-Apr-12 09:53 37.979625 -120.665611 250 9570ft 141kts
28-Apr-12 09:54 37.962588 -120.718674 250 11071ft 137kts
28-Apr-12 09:55 37.950506 -120.756343 250 11878ft 150kts
28-Apr-12 09:56 37.932268 -120.813286 249 11896ft 191kts
28-Apr-12 09:57 37.911542 -120.877424 249 11888ft 197kts
28-Apr-12 09:58 37.889972 -120.944631 249 11883ft 203kts
28-Apr-12 09:59 37.868611 -121.010084 249 11888ft 199kts
28-Apr-12 10:00 37.847663 -121.074570 249 11888ft 198kts
28-Apr-12 10:01 37.826609 -121.139261 249 11888ft 197kts
28-Apr-12 10:02 37.805681 -121.203427 249 11888ft 197kts
28-Apr-12 10:03 37.784638 -121.267800 249 11888ft 197kts
28-Apr-12 10:04 37.763562 -121.332134 249 11866ft 198kts
28-Apr-12 10:05 37.740895 -121.401278 249 10919ft 221kts
28-Apr-12 10:06 37.716739 -121.474596 249 9912ft 225kts
28-Apr-12 10:07 37.692595 -121.547811 248 8910ft 225kts
28-Apr-12 10:08 37.668494 -121.620630 248 7908ft 223kts
28-Apr-12 10:09 37.644993 -121.691475 248 6903ft 211kts
28-Apr-12 10:10 37.622547 -121.759006 249 5977ft 205kts
28-Apr-12 10:11 37.581876 -121.799649 181 5843ft 203kts
28-Apr-12 10:12 37.527676 -121.781265 167 5843ft 199kts
28-Apr-12 10:13 37.484399 -121.740941 118 5583ft 214kts
28-Apr-12 10:14 37.455255 -121.675137 109 5394ft 201kts
28-Apr-12 10:15 37.484719 -121.638881 335 5445ft 175kts
28-Apr-12 10:16 37.493479 -121.692217 257 5446ft 177kts
28-Apr-12 10:17 37.489141 -121.752248 299 5445ft 174kts
28-Apr-12 10:18 37.513036 -121.804958 300 5117ft 162kts
28-Apr-12 10:19 37.534067 -121.850644 301 4279ft 141kts
28-Apr-12 10:20 37.553485 -121.892744 300 3660ft 137kts
28-Apr-12 10:21 37.572091 -121.933254 299 3324ft 122kts
28-Apr-12 10:22 37.589434 -121.970995 299 2632ft 123kts
28-Apr-12 10:23 37.606467 -122.008183 299 1964ft 121kts
28-Apr-12 10:24 37.623307 -122.043551 307 1328ft 102kts
28-Apr-12 10:25 37.638973 -122.075556 300 780ft 107kts
28-Apr-12 10:26 37.653604 -122.108382 300 332ft 107kts
28-Apr-12 10:27 37.661616 -122.124205 28 55ft 0kts
28-Apr-12 10:28 37.662045 -122.121778 27 55ft 0kts

Navigation Log

Ident Type
Flight plan parsing failed, navigation log unavailable